createdAt,value
2023-04-07T00:00:04.708Z,7.00
2023-04-07T00:04:14.724Z,7.10
2023-04-07T00:08:17.657Z,6.90
2023-04-07T00:12:21.870Z,7.10
2023-04-07T00:16:24.685Z,7.30
2023-04-07T00:20:27.599Z,7.20
2023-04-07T00:24:34.421Z,7.20
2023-04-07T00:28:39.123Z,7.40
2023-04-07T00:32:42.041Z,7.60
2023-04-07T00:36:46.494Z,7.30
2023-04-07T00:40:49.320Z,7.30
2023-04-07T00:44:53.573Z,7.40
2023-04-07T00:48:56.995Z,7.60
2023-04-07T00:52:59.875Z,7.70
2023-04-07T00:57:02.727Z,7.90
2023-04-07T01:01:10.572Z,7.90
2023-04-07T01:05:19.340Z,7.60
2023-04-07T01:09:32.038Z,7.40
2023-04-07T01:13:39.625Z,7.60
2023-04-07T01:18:02.262Z,8.00
2023-04-07T01:22:09.941Z,7.90
2023-04-07T01:26:20.879Z,7.80
2023-04-07T01:30:28.508Z,7.70
2023-04-07T01:34:33.852Z,7.80
2023-04-07T01:38:37.735Z,7.70
2023-04-07T01:42:40.905Z,7.80
2023-04-07T01:46:45.155Z,8.00
2023-04-07T01:50:48.968Z,8.20
2023-04-07T01:54:51.937Z,8.00
2023-04-07T01:58:54.720Z,8.20
2023-04-07T02:03:20.934Z,8.20
2023-04-07T02:07:30.760Z,8.20
2023-04-07T02:11:35.618Z,8.00
2023-04-07T02:15:41.994Z,7.90
2023-04-07T02:19:47.766Z,7.90
2023-04-07T02:23:50.938Z,7.80
2023-04-07T02:27:54.437Z,7.60
2023-04-07T02:31:57.484Z,7.80
2023-04-07T02:36:01.698Z,7.90
2023-04-07T02:40:04.874Z,7.80
2023-04-07T02:44:07.708Z,7.60
2023-04-07T02:48:12.222Z,7.70
2023-04-07T02:52:16.398Z,7.60
2023-04-07T02:56:19.451Z,7.60
2023-04-07T03:00:22.431Z,7.40
2023-04-07T03:04:39.718Z,7.30
2023-04-07T03:08:44.124Z,7.20
2023-04-07T03:12:47.045Z,7.20
2023-04-07T03:16:50.121Z,7.20
2023-04-07T03:20:55.493Z,7.00
2023-04-07T03:24:59.838Z,7.00
2023-04-07T03:29:04.194Z,7.00
2023-04-07T03:33:07.674Z,6.90
2023-04-07T03:37:10.557Z,6.90
2023-04-07T03:41:15.622Z,6.80
2023-04-07T03:45:18.508Z,6.90
2023-04-07T03:49:27.056Z,6.80
2023-04-07T03:53:31.400Z,6.80
2023-04-07T03:57:37.679Z,6.70
2023-04-07T04:01:40.594Z,6.80
2023-04-07T04:05:48.440Z,6.80
2023-04-07T04:09:56.759Z,6.80
2023-04-07T04:14:01.187Z,6.90
2023-04-07T04:18:04.662Z,6.90
2023-04-07T04:22:08.819Z,6.60
2023-04-07T04:26:19.027Z,6.50
2023-04-07T04:30:23.335Z,6.70
2023-04-07T04:34:30.028Z,6.50
2023-04-07T04:38:33.704Z,6.40
2023-04-07T04:42:44.730Z,6.50
2023-04-07T04:46:50.796Z,6.10
2023-04-07T04:50:53.620Z,6.20
2023-04-07T04:54:57.616Z,6.30
2023-04-07T04:59:03.581Z,6.20
2023-04-07T05:03:17.285Z,6.10
2023-04-07T05:07:26.088Z,6.00
2023-04-07T05:11:29.041Z,6.00
2023-04-07T05:15:32.464Z,6.10
2023-04-07T05:19:37.951Z,6.10
2023-04-07T05:23:48.076Z,6.00
2023-04-07T05:27:51.472Z,6.00
2023-04-07T05:31:54.624Z,6.10
2023-04-07T05:36:00.778Z,6.00
2023-04-07T05:40:03.824Z,5.90
2023-04-07T05:44:07.441Z,6.00
2023-04-07T05:48:15.162Z,6.10
2023-04-07T05:52:22.067Z,6.20
2023-04-07T05:56:32.088Z,6.10
2023-04-07T06:00:35.648Z,6.30
2023-04-07T06:04:44.372Z,6.50
2023-04-07T06:08:53.180Z,6.50
2023-04-07T06:12:56.138Z,6.50
2023-04-07T06:16:59.053Z,6.50
2023-04-07T06:21:02.024Z,6.70
2023-04-07T06:25:07.191Z,6.60
2023-04-07T06:29:10.091Z,6.60
2023-04-07T06:33:13.152Z,6.80
2023-04-07T06:37:17.150Z,6.90
2023-04-07T06:41:21.479Z,6.90
2023-04-07T06:45:24.765Z,6.80
2023-04-07T06:49:27.590Z,7.00
2023-04-07T06:53:30.629Z,7.00
2023-04-07T06:57:34.846Z,7.10
2023-04-07T07:01:38.314Z,7.20
2023-04-07T07:05:41.436Z,7.20
2023-04-07T07:09:44.329Z,7.50
2023-04-07T07:13:48.617Z,7.30
2023-04-07T07:17:51.708Z,7.30
2023-04-07T07:21:55.487Z,7.40
2023-04-07T07:25:58.365Z,7.50
2023-04-07T07:30:02.630Z,7.70
2023-04-07T07:34:05.598Z,7.40
2023-04-07T07:38:08.586Z,7.60
2023-04-07T07:42:11.417Z,7.60
2023-04-07T07:46:15.875Z,7.80
2023-04-07T07:50:18.768Z,7.70
2023-04-07T07:54:21.588Z,7.90
2023-04-07T07:58:24.433Z,8.10
2023-04-07T08:02:31.351Z,8.40
2023-04-07T08:06:34.229Z,8.90
2023-04-07T08:10:37.119Z,9.40
2023-04-07T08:14:39.973Z,10.00
2023-04-07T08:18:44.257Z,11.10
2023-04-07T08:22:47.090Z,11.40
2023-04-07T08:26:49.902Z,11.00
2023-04-07T08:30:52.789Z,11.50
2023-04-07T08:34:58.406Z,11.00
2023-04-07T08:39:02.253Z,11.60
2023-04-07T08:43:09.334Z,12.00
2023-04-07T08:47:12.512Z,12.80
2023-04-07T08:51:24.319Z,14.80
2023-04-07T08:55:27.336Z,18.00
2023-04-07T08:59:31.031Z,21.80
2023-04-07T09:03:34.526Z,22.90
2023-04-07T09:07:43.470Z,24.60
2023-04-07T09:11:46.377Z,27.50
2023-04-07T09:15:49.272Z,28.70
2023-04-07T09:19:53.978Z,29.20
2023-04-07T09:23:58.133Z,30.30
2023-04-07T09:28:02.132Z,31.70
2023-04-07T09:32:04.959Z,31.80
2023-04-07T09:36:08.201Z,32.00
2023-04-07T09:40:12.687Z,31.80
2023-04-07T09:44:15.801Z,29.90
2023-04-07T09:48:21.619Z,27.70
2023-04-07T09:52:27.426Z,25.40
2023-04-07T09:56:31.789Z,23.60
2023-04-07T10:00:34.722Z,23.50
2023-04-07T10:04:38.167Z,24.60
2023-04-07T10:08:43.353Z,23.50
2023-04-07T10:12:50.364Z,23.00
2023-04-07T10:16:54.636Z,23.50
2023-04-07T10:20:58.412Z,23.00
2023-04-07T10:25:05.105Z,22.20
2023-04-07T10:29:12.614Z,20.90
2023-04-07T10:33:15.443Z,20.60
2023-04-07T10:37:21.328Z,19.70
2023-04-07T10:41:34.978Z,19.70
2023-04-07T10:46:00.365Z,20.50
2023-04-07T10:50:21.105Z,19.40
2023-04-07T10:54:29.026Z,18.60
2023-04-07T10:58:32.725Z,18.20
2023-04-07T11:02:39.924Z,18.10
2023-04-07T11:06:48.624Z,17.90
2023-04-07T11:10:51.468Z,17.80
2023-04-07T11:14:54.286Z,17.80
2023-04-07T11:18:58.510Z,17.80
2023-04-07T11:23:01.794Z,18.00
2023-04-07T11:27:04.962Z,18.70
2023-04-07T11:31:08.034Z,19.90
2023-04-07T11:35:13.137Z,23.80
2023-04-07T11:39:23.217Z,25.30
2023-04-07T11:43:29.299Z,25.20
2023-04-07T11:47:36.886Z,28.00
2023-04-07T11:51:42.202Z,26.80
2023-04-07T11:55:45.025Z,24.90
2023-04-07T11:59:47.863Z,22.70
2023-04-07T12:04:00.141Z,21.90
2023-04-07T12:08:04.767Z,21.40
2023-04-07T12:12:10.023Z,20.60
2023-04-07T12:16:12.919Z,20.20
2023-04-07T12:20:16.393Z,20.10
2023-04-07T12:24:21.323Z,20.70
2023-04-07T12:28:24.162Z,20.30
2023-04-07T12:32:27.051Z,19.60
2023-04-07T12:36:29.877Z,19.00
2023-04-07T12:40:35.105Z,18.60
2023-04-07T12:44:37.922Z,18.20
2023-04-07T12:48:40.727Z,17.80
2023-04-07T12:52:43.473Z,17.20
2023-04-07T12:56:47.763Z,17.00
2023-04-07T13:00:50.576Z,16.90
2023-04-07T13:04:53.461Z,17.00
2023-04-07T13:08:56.458Z,17.00
2023-04-07T13:13:01.045Z,17.30
2023-04-07T13:17:03.965Z,17.30
2023-04-07T13:21:38.280Z,17.00
2023-04-07T13:25:30.096Z,17.00
2023-04-07T13:29:34.342Z,16.80
2023-04-07T13:33:37.726Z,16.60
2023-04-07T13:37:40.525Z,16.60
2023-04-07T13:41:43.413Z,16.40
2023-04-07T13:45:47.592Z,16.40
2023-04-07T13:49:51.920Z,16.30
2023-04-07T13:53:54.777Z,16.10
2023-04-07T13:57:57.575Z,16.30
2023-04-07T14:02:01.902Z,16.30
2023-04-07T14:06:05.443Z,16.20
2023-04-07T14:10:10.571Z,16.10
2023-04-07T14:14:13.689Z,15.70
2023-04-07T14:18:17.881Z,15.50
2023-04-07T14:22:20.908Z,15.70
2023-04-07T14:26:23.772Z,15.70
2023-04-07T14:30:27.752Z,15.60
2023-04-07T14:34:32.021Z,15.30
2023-04-07T14:38:35.407Z,15.00
2023-04-07T14:42:38.310Z,15.20
2023-04-07T14:46:42.373Z,15.30
2023-04-07T14:50:47.663Z,15.30
2023-04-07T14:54:50.598Z,15.30
2023-04-07T14:58:53.397Z,15.20
2023-04-07T15:02:56.391Z,15.20
2023-04-07T15:07:00.725Z,15.20
2023-04-07T15:11:05.694Z,15.20
2023-04-07T15:15:09.046Z,14.90
2023-04-07T15:19:11.912Z,14.90
2023-04-07T15:23:16.441Z,14.70
2023-04-07T15:27:19.275Z,14.70
2023-04-07T15:31:23.336Z,14.80
2023-04-07T15:35:26.406Z,14.80
2023-04-07T15:39:30.650Z,14.70
2023-04-07T15:43:34.489Z,14.60
2023-04-07T15:47:37.390Z,14.60
2023-04-07T15:51:40.482Z,14.60
2023-04-07T15:55:44.710Z,14.60
2023-04-07T15:59:47.637Z,14.50
2023-04-07T16:03:51.474Z,14.40
2023-04-07T16:07:54.612Z,14.20
2023-04-07T16:11:58.822Z,14.20
2023-04-07T16:16:01.687Z,14.10
2023-04-07T16:20:04.968Z,14.20
2023-04-07T16:24:07.823Z,14.20
2023-04-07T16:28:12.168Z,14.20
2023-04-07T16:32:14.951Z,14.10
2023-04-07T16:36:17.905Z,14.00
2023-04-07T16:40:21.068Z,13.90
2023-04-07T16:44:25.945Z,13.80
2023-04-07T16:48:28.827Z,13.60
2023-04-07T16:52:31.746Z,13.60
2023-04-07T16:56:34.551Z,13.50
2023-04-07T17:00:38.801Z,13.40
2023-04-07T17:04:41.787Z,13.40
2023-04-07T17:08:44.846Z,13.40
2023-04-07T17:12:52.150Z,13.40
2023-04-07T17:16:56.859Z,13.20
2023-04-07T17:20:59.829Z,13.10
2023-04-07T17:25:02.656Z,13.00
2023-04-07T17:29:05.565Z,13.10
2023-04-07T17:33:09.830Z,13.00
2023-04-07T17:37:12.709Z,12.90
2023-04-07T17:41:15.899Z,12.90
2023-04-07T17:45:18.852Z,12.90
2023-04-07T17:49:24.518Z,12.90
2023-04-07T17:53:27.371Z,12.80
2023-04-07T17:57:30.565Z,12.70
2023-04-07T18:01:33.554Z,12.80
2023-04-07T18:05:37.752Z,12.80
2023-04-07T18:09:41.693Z,12.70
2023-04-07T18:13:44.816Z,12.70
2023-04-07T18:17:52.773Z,12.70
2023-04-07T18:21:57.111Z,12.70
2023-04-07T18:26:02.886Z,12.70
2023-04-07T18:30:06.906Z,12.70
2023-04-07T18:34:10.000Z,12.70
2023-04-07T18:38:14.222Z,12.70
2023-04-07T18:42:17.079Z,12.60
2023-04-07T18:46:19.945Z,12.60
2023-04-07T18:50:22.910Z,12.50
2023-04-07T18:54:28.518Z,12.40
2023-04-07T18:58:31.840Z,12.40
2023-04-07T19:02:34.801Z,12.40
2023-04-07T19:06:37.789Z,12.40
2023-04-07T19:10:41.968Z,12.40
2023-04-07T19:14:44.744Z,12.30
2023-04-07T19:18:47.543Z,12.40
2023-04-07T19:22:50.404Z,12.40
2023-04-07T19:26:56.886Z,12.30
2023-04-07T19:30:59.725Z,12.30
2023-04-07T19:35:02.561Z,12.30
2023-04-07T19:39:05.409Z,12.30
2023-04-07T19:43:09.592Z,12.30
2023-04-07T19:47:12.492Z,12.20
2023-04-07T19:51:16.563Z,12.10
2023-04-07T19:55:19.551Z,12.10
2023-04-07T19:59:23.744Z,12.10
2023-04-07T20:03:26.676Z,12.20
2023-04-07T20:07:32.853Z,12.00
2023-04-07T20:11:35.709Z,12.10
2023-04-07T20:15:40.137Z,12.00
2023-04-07T20:19:43.030Z,12.00
2023-04-07T20:23:46.430Z,12.00
2023-04-07T20:27:50.392Z,12.00
2023-04-07T20:31:54.814Z,12.00
2023-04-07T20:35:57.730Z,11.90
2023-04-07T20:40:00.869Z,11.90
2023-04-07T20:44:04.325Z,11.80
2023-04-07T20:48:08.602Z,11.90
2023-04-07T20:52:11.549Z,11.80
2023-04-07T20:56:14.304Z,11.70
2023-04-07T21:00:18.999Z,11.70
2023-04-07T21:04:24.510Z,11.70
2023-04-07T21:08:27.799Z,11.60
2023-04-07T21:12:30.689Z,11.50
2023-04-07T21:16:33.670Z,11.40
2023-04-07T21:20:38.724Z,11.30
2023-04-07T21:24:41.558Z,11.20
2023-04-07T21:28:44.427Z,11.10
2023-04-07T21:32:47.282Z,11.00
2023-04-07T21:36:51.526Z,11.00
2023-04-07T21:40:54.540Z,10.80
2023-04-07T21:44:57.346Z,10.80
2023-04-07T21:49:00.252Z,10.80
2023-04-07T21:53:04.528Z,10.60
2023-04-07T21:57:07.381Z,10.50
2023-04-07T22:01:11.086Z,10.40
2023-04-07T22:05:14.008Z,10.30
2023-04-07T22:09:18.225Z,10.10
2023-04-07T22:13:21.159Z,10.00
2023-04-07T22:17:24.030Z,9.90
2023-04-07T22:21:27.202Z,9.90
2023-04-07T22:25:31.453Z,9.80
2023-04-07T22:29:34.279Z,9.50
2023-04-07T22:33:37.737Z,9.30
2023-04-07T22:37:40.628Z,9.50
2023-04-07T22:41:44.788Z,9.10
2023-04-07T22:45:47.640Z,9.00
2023-04-07T22:49:50.705Z,8.80
2023-04-07T22:53:53.511Z,8.70
2023-04-07T22:57:57.668Z,8.80
2023-04-07T23:02:00.552Z,8.60
2023-04-07T23:06:03.769Z,8.50
2023-04-07T23:10:09.213Z,8.30
2023-04-07T23:14:13.442Z,8.20
2023-04-07T23:18:16.333Z,8.10
2023-04-07T23:22:19.177Z,8.10
2023-04-07T23:26:22.010Z,8.00
2023-04-07T23:30:26.207Z,7.90
2023-04-07T23:34:29.121Z,8.00
2023-04-07T23:38:32.375Z,7.90
2023-04-07T23:42:35.326Z,7.90
2023-04-07T23:46:39.562Z,7.90
2023-04-07T23:50:42.693Z,7.90
2023-04-07T23:54:46.090Z,7.90
2023-04-07T23:58:49.745Z,7.90
